sensor_id;sensor_type;location;lat;lon;timestamp;pressure;altitude;pressure_sealevel;temperature;humidity
69593;BME280;56796;50.122;14.468;2024-02-04T00:04:40;983.28;;;7.83;93.94
69593;BME280;56796;50.122;14.468;2024-02-04T00:24:05;983.39;;;7.79;94.75
69593;BME280;56796;50.122;14.468;2024-02-04T00:43:32;983.3;;;7.74;95.51
69593;BME280;56796;50.122;14.468;2024-02-04T01:03:00;983.25;;;7.78;95.37
69593;BME280;56796;50.122;14.468;2024-02-04T01:22:26;983.21;;;7.85;95.24
69593;BME280;56796;50.122;14.468;2024-02-04T01:41:53;983.13;;;7.78;96.93
69593;BME280;56796;50.122;14.468;2024-02-04T02:01:19;983.07;;;7.56;99.55
69593;BME280;56796;50.122;14.468;2024-02-04T02:20:52;982.84;;;7.55;100
69593;BME280;56796;50.122;14.468;2024-02-04T02:40:13;982.79;;;7.43;99.38
69593;BME280;56796;50.122;14.468;2024-02-04T02:59:38;982.72;;;7.24;99.35
69593;BME280;56796;50.122;14.468;2024-02-04T03:19:04;982.63;;;7.25;99.18
69593;BME280;56796;50.122;14.468;2024-02-04T03:38:29;982.86;;;7.1;99.21
69593;BME280;56796;50.122;14.468;2024-02-04T03:57:57;982.9;;;7.24;98.85
69593;BME280;56796;50.122;14.468;2024-02-04T04:17:24;982.84;;;7.44;98.01
69593;BME280;56796;50.122;14.468;2024-02-04T04:36:50;982.55;;;7.46;98.07
69593;BME280;56796;50.122;14.468;2024-02-04T04:56:16;982.46;;;7.42;97.83
69593;BME280;56796;50.122;14.468;2024-02-04T05:15:43;982.36;;;7.31;97.86
69593;BME280;56796;50.122;14.468;2024-02-04T05:35:09;982.23;;;7.34;98.02
69593;BME280;56796;50.122;14.468;2024-02-04T05:54:37;982.25;;;7.74;95.92
69593;BME280;56796;50.122;14.468;2024-02-04T06:14:04;981.93;;;7.88;94.6
69593;BME280;56796;50.122;14.468;2024-02-04T06:33:31;981.99;;;8;93.53
69593;BME280;56796;50.122;14.468;2024-02-04T06:52:59;981.94;;;7.94;95.32
69593;BME280;56796;50.122;14.468;2024-02-04T07:12:25;981.81;;;8.1;94.71
69593;BME280;56796;50.122;14.468;2024-02-04T07:31:53;981.9;;;8.37;92.54
69593;BME280;56796;50.122;14.468;2024-02-04T07:51:21;981.88;;;8.75;91.1
69593;BME280;56796;50.122;14.468;2024-02-04T08:10:52;981.64;;;9.37;87.91
69593;BME280;56796;50.122;14.468;2024-02-04T08:30:18;981.69;;;9.02;88.76
69593;BME280;56796;50.122;14.468;2024-02-04T08:49:45;981.56;;;9;88.77
69593;BME280;56796;50.122;14.468;2024-02-04T09:09:12;981.79;;;9.27;87.43
69593;BME280;56796;50.122;14.468;2024-02-04T09:28:40;981.68;;;9.43;86.3
69593;BME280;56796;50.122;14.468;2024-02-04T09:48:08;981.89;;;9.43;86.21
69593;BME280;56796;50.122;14.468;2024-02-04T10:07:36;981.65;;;9.84;84.69
69593;BME280;56796;50.122;14.468;2024-02-04T10:27:04;981.44;;;10.18;83.12
69593;BME280;56796;50.122;14.468;2024-02-04T10:46:31;981.32;;;10.09;83.64
69593;BME280;56796;50.122;14.468;2024-02-04T11:05:58;981.14;;;9.89;83.79
69593;BME280;56796;50.122;14.468;2024-02-04T11:25:29;980.91;;;9.68;85.03
69593;BME280;56796;50.122;14.468;2024-02-04T12:04:15;980.51;;;10.1;81.83
69593;BME280;56796;50.122;14.468;2024-02-04T12:23:44;980.12;;;10.1;80.93
69593;BME280;56796;50.122;14.468;2024-02-04T12:43:04;980.01;;;10.22;80.33
69593;BME280;56796;50.122;14.468;2024-02-04T13:02:31;979.77;;;10.12;80.36
69593;BME280;56796;50.122;14.468;2024-02-04T13:21:58;979.61;;;9.93;81.72
69593;BME280;56796;50.122;14.468;2024-02-04T13:41:24;979.42;;;9.8;82.34
69593;BME280;56796;50.122;14.468;2024-02-04T14:00:51;979.33;;;9.93;81.49
69593;BME280;56796;50.122;14.468;2024-02-04T14:20:18;979.45;;;9.95;81.49
69593;BME280;56796;50.122;14.468;2024-02-04T14:39:45;979.51;;;9.99;81.59
69593;BME280;56796;50.122;14.468;2024-02-04T14:59:13;979.8;;;9.64;85.85
69593;BME280;56796;50.122;14.468;2024-02-04T15:18:39;979.58;;;9.39;87.43
69593;BME280;56796;50.122;14.468;2024-02-04T15:38:05;979.33;;;9.1;89.97
69593;BME280;56796;50.122;14.468;2024-02-04T15:57:34;979.33;;;9.31;87.57
69593;BME280;56796;50.122;14.468;2024-02-04T16:16:55;979.39;;;9.45;85.86
69593;BME280;56796;50.122;14.468;2024-02-04T16:36:18;979.64;;;9.2;87.92
69593;BME280;56796;50.122;14.468;2024-02-04T16:55:43;980;;;8.81;92.16
69593;BME280;56796;50.122;14.468;2024-02-04T17:15:09;979.8;;;8.45;95.87
69593;BME280;56796;50.122;14.468;2024-02-04T17:34:34;979.71;;;8.27;97.94
69593;BME280;56796;50.122;14.468;2024-02-04T17:54:01;979.44;;;8.18;99.38
69593;BME280;56796;50.122;14.468;2024-02-04T18:13:27;978.9;;;8.27;98.8
69593;BME280;56796;50.122;14.468;2024-02-04T18:32:53;978.67;;;8.28;98.56
69593;BME280;56796;50.122;14.468;2024-02-04T18:52:20;978.41;;;8.37;97.58
69593;BME280;56796;50.122;14.468;2024-02-04T19:11:47;978.14;;;8.49;96.48
69593;BME280;56796;50.122;14.468;2024-02-04T19:31:14;978.38;;;8.57;96.29
69593;BME280;56796;50.122;14.468;2024-02-04T19:50:42;978.29;;;8.6;96.54
69593;BME280;56796;50.122;14.468;2024-02-04T20:10:06;978.39;;;8.54;97.95
69593;BME280;56796;50.122;14.468;2024-02-04T20:29:32;978.35;;;8.27;100
69593;BME280;56796;50.122;14.468;2024-02-04T20:48:58;978.22;;;8.18;100
69593;BME280;56796;50.122;14.468;2024-02-04T21:08:24;978.09;;;8.3;100
69593;BME280;56796;50.122;14.468;2024-02-04T21:27:52;977.98;;;8.64;98.18
69593;BME280;56796;50.122;14.468;2024-02-04T21:47:21;977.98;;;8.89;95.8
69593;BME280;56796;50.122;14.468;2024-02-04T22:06:46;977.9;;;8.99;94.83
69593;BME280;56796;50.122;14.468;2024-02-04T22:26:14;977.73;;;9;94.31
69593;BME280;56796;50.122;14.468;2024-02-04T22:45:41;977.63;;;9.17;92.56
69593;BME280;56796;50.122;14.468;2024-02-04T23:05:10;977.42;;;9.2;92.36
69593;BME280;56796;50.122;14.468;2024-02-04T23:24:36;977.41;;;9.35;90.82
69593;BME280;56796;50.122;14.468;2024-02-04T23:44:02;977.26;;;9.43;90.11
